createdAt,value
2022-11-26T00:03:29.297Z,24.65
2022-11-26T00:08:36.466Z,24.63
2022-11-26T00:13:43.664Z,24.66
2022-11-26T00:18:50.855Z,24.70
2022-11-26T00:23:58.093Z,24.68
2022-11-26T00:29:05.267Z,24.73
2022-11-26T00:34:12.534Z,24.74
2022-11-26T00:39:19.702Z,24.76
2022-11-26T00:44:26.930Z,24.77
2022-11-26T00:49:34.128Z,24.80
2022-11-26T00:54:41.316Z,24.77
2022-11-26T00:59:48.429Z,24.78
2022-11-26T01:04:55.705Z,24.78
2022-11-26T01:10:02.941Z,24.87
2022-11-26T01:15:10.128Z,24.92
2022-11-26T01:20:19.553Z,24.94
2022-11-26T01:25:24.581Z,24.95
2022-11-26T01:30:31.774Z,24.95
2022-11-26T01:35:39.026Z,24.93
2022-11-26T01:40:46.267Z,24.98
2022-11-26T01:45:53.530Z,24.99
2022-11-26T01:51:00.726Z,24.95
2022-11-26T01:56:08.027Z,24.88
2022-11-26T02:01:15.488Z,24.85
2022-11-26T02:06:22.617Z,24.77
2022-11-26T02:11:29.851Z,24.69
2022-11-26T02:16:37.097Z,24.59
2022-11-26T02:21:44.302Z,24.55
2022-11-26T02:26:51.559Z,24.45
2022-11-26T02:31:58.856Z,24.36
2022-11-26T02:37:06.064Z,24.26
2022-11-26T02:42:13.401Z,24.17
2022-11-26T02:47:20.725Z,24.08
2022-11-26T02:52:27.925Z,24.04
2022-11-26T02:57:35.157Z,23.94
2022-11-26T03:02:42.337Z,23.81
2022-11-26T03:07:49.654Z,23.72
2022-11-26T03:12:56.770Z,23.62
2022-11-26T03:18:04.010Z,23.54
2022-11-26T03:23:11.273Z,23.45
2022-11-26T03:28:18.516Z,23.37
2022-11-26T03:33:25.728Z,23.28
2022-11-26T03:38:33.076Z,23.25
2022-11-26T03:43:40.316Z,23.15
2022-11-26T03:48:47.489Z,23.07
2022-11-26T03:53:54.709Z,23.02
2022-11-26T03:59:01.993Z,22.97
2022-11-26T04:04:09.205Z,22.86
2022-11-26T04:09:16.416Z,22.84
2022-11-26T04:14:23.707Z,22.78
2022-11-26T04:19:30.818Z,22.75
2022-11-26T04:24:38.297Z,22.75
2022-11-26T04:29:45.257Z,22.68
2022-11-26T04:34:52.453Z,22.67
2022-11-26T04:39:59.648Z,22.61
2022-11-26T04:45:06.909Z,22.57
2022-11-26T04:50:14.755Z,22.53
2022-11-26T04:55:21.986Z,22.51
2022-11-26T05:00:29.226Z,22.44
2022-11-26T05:05:36.385Z,22.41
2022-11-26T05:10:43.575Z,22.36
2022-11-26T05:15:50.828Z,22.24
2022-11-26T05:20:58.033Z,22.18
2022-11-26T05:26:05.222Z,22.12
2022-11-26T05:31:12.573Z,22.05
2022-11-26T05:36:19.831Z,21.98
2022-11-26T05:41:27.016Z,21.91
2022-11-26T05:46:34.249Z,21.84
2022-11-26T05:51:41.426Z,21.81
2022-11-26T05:56:48.621Z,21.82
2022-11-26T06:01:55.934Z,21.78
2022-11-26T06:07:03.089Z,21.77
2022-11-26T06:12:10.252Z,21.75
2022-11-26T06:17:17.478Z,21.69
2022-11-26T06:22:24.651Z,21.65
2022-11-26T06:27:31.849Z,21.61
2022-11-26T06:32:39.063Z,21.55
2022-11-26T06:37:46.226Z,21.52
2022-11-26T06:42:53.499Z,21.51
2022-11-26T06:48:00.730Z,21.45
2022-11-26T06:53:07.927Z,21.40
2022-11-26T06:58:15.233Z,21.32
2022-11-26T07:03:25.465Z,21.32
2022-11-26T07:08:29.740Z,21.28
2022-11-26T07:13:37.770Z,21.27
2022-11-26T07:18:44.956Z,21.23
2022-11-26T07:23:52.162Z,21.21
2022-11-26T07:28:59.380Z,21.18
2022-11-26T07:34:06.733Z,21.14
2022-11-26T07:39:13.861Z,21.09
2022-11-26T07:44:21.082Z,21.06
2022-11-26T07:49:28.292Z,20.99
2022-11-26T07:54:35.879Z,20.95
2022-11-26T07:59:42.746Z,20.90
2022-11-26T08:04:50.021Z,20.89
2022-11-26T08:09:57.213Z,20.85
2022-11-26T08:15:04.422Z,20.85
2022-11-26T08:20:13.036Z,20.86
2022-11-26T08:25:20.235Z,20.99
2022-11-26T08:30:27.452Z,21.15
2022-11-26T08:36:04.869Z,21.30
2022-11-26T08:40:41.872Z,21.44
2022-11-26T08:45:49.389Z,21.57
2022-11-26T08:50:56.620Z,21.66
2022-11-26T08:56:03.858Z,21.79
2022-11-26T09:01:11.157Z,21.87
2022-11-26T09:06:18.317Z,21.95
2022-11-26T09:11:25.545Z,22.06
2022-11-26T09:16:32.805Z,22.14
2022-11-26T09:21:40.528Z,22.24
2022-11-26T09:26:47.683Z,22.39
2022-11-26T09:32:22.072Z,22.54
2022-11-26T09:37:02.144Z,22.70
2022-11-26T09:42:09.318Z,22.81
2022-11-26T09:47:16.476Z,22.95
2022-11-26T09:52:23.762Z,23.05
2022-11-26T09:57:30.972Z,23.14
2022-11-26T10:02:38.320Z,23.23
2022-11-26T10:07:45.613Z,23.34
2022-11-26T10:13:17.481Z,23.39
2022-11-26T10:17:59.919Z,23.51
2022-11-26T10:23:07.155Z,23.58
2022-11-26T10:28:14.379Z,23.62
2022-11-26T10:33:21.570Z,23.69
2022-11-26T10:38:28.801Z,23.79
2022-11-26T10:43:36.025Z,23.84
2022-11-26T10:48:43.188Z,23.88
2022-11-26T10:53:50.438Z,23.98
2022-11-26T10:58:57.612Z,24.01
2022-11-26T11:04:08.957Z,24.06
2022-11-26T11:09:11.993Z,24.14
2022-11-26T11:14:19.207Z,24.17
2022-11-26T11:19:26.359Z,24.25
2022-11-26T11:24:33.543Z,24.25
2022-11-26T11:29:40.961Z,24.18
2022-11-26T11:34:48.232Z,24.16
2022-11-26T11:39:55.460Z,24.24
2022-11-26T11:45:02.618Z,24.25
2022-11-26T11:50:09.861Z,24.33
2022-11-26T11:55:17.063Z,24.36
2022-11-26T12:00:24.225Z,24.41
2022-11-26T12:05:31.506Z,24.41
2022-11-26T12:10:38.712Z,24.38
2022-11-26T12:15:45.907Z,24.33
2022-11-26T12:20:53.111Z,24.33
2022-11-26T12:26:00.299Z,24.32
2022-11-26T12:31:07.543Z,24.32
2022-11-26T12:36:14.717Z,24.31
2022-11-26T12:41:21.917Z,24.27
2022-11-26T12:46:29.401Z,24.28
2022-11-26T12:51:36.609Z,24.24
2022-11-26T12:56:43.849Z,24.27
2022-11-26T13:01:51.054Z,24.21
2022-11-26T13:06:58.168Z,24.23
2022-11-26T13:12:05.364Z,24.24
2022-11-26T13:17:12.574Z,24.34
2022-11-26T13:22:19.824Z,24.41
2022-11-26T13:27:26.999Z,24.44
2022-11-26T13:32:34.150Z,24.53
2022-11-26T13:37:41.359Z,24.58
2022-11-26T13:42:48.561Z,24.60
2022-11-26T13:47:55.762Z,24.62
2022-11-26T13:53:03.023Z,24.65
2022-11-26T13:58:10.219Z,24.70
2022-11-26T14:03:17.575Z,24.68
2022-11-26T14:08:24.822Z,24.73
2022-11-26T14:13:32.075Z,24.76
2022-11-26T14:18:39.389Z,24.82
2022-11-26T14:23:46.647Z,24.79
2022-11-26T14:28:53.854Z,24.80
2022-11-26T14:34:01.009Z,24.77
2022-11-26T14:39:08.200Z,24.85
2022-11-26T14:44:15.410Z,24.87
2022-11-26T14:49:22.591Z,24.86
2022-11-26T14:54:29.794Z,24.88
2022-11-26T14:59:37.065Z,24.89
2022-11-26T15:04:44.249Z,24.92
2022-11-26T15:09:51.497Z,24.94
2022-11-26T15:14:58.730Z,24.86
2022-11-26T15:20:05.974Z,24.76
2022-11-26T15:25:13.191Z,24.72
2022-11-26T15:30:20.391Z,24.68
2022-11-26T15:35:27.612Z,24.59
2022-11-26T15:40:34.846Z,24.59
2022-11-26T15:45:42.164Z,24.56
2022-11-26T15:50:49.295Z,24.50
2022-11-26T15:55:56.500Z,24.51
2022-11-26T16:01:03.844Z,24.50
2022-11-26T16:06:10.901Z,24.48
2022-11-26T16:11:18.141Z,24.47
2022-11-26T16:16:25.748Z,24.48
2022-11-26T16:21:32.923Z,24.50
2022-11-26T16:26:40.441Z,24.53
2022-11-26T16:31:47.794Z,24.50
2022-11-26T16:36:54.974Z,24.55
2022-11-26T16:42:02.360Z,24.53
2022-11-26T16:47:10.001Z,24.51
2022-11-26T16:52:17.354Z,24.51
2022-11-26T16:57:24.793Z,24.48
2022-11-26T17:02:32.275Z,24.44
2022-11-26T17:07:39.424Z,24.46
2022-11-26T17:12:46.827Z,24.47
2022-11-26T17:17:54.561Z,24.45
2022-11-26T17:23:01.912Z,24.45
2022-11-26T17:28:09.150Z,24.49
2022-11-26T17:33:16.694Z,24.45
2022-11-26T17:38:24.211Z,24.49
2022-11-26T17:43:31.508Z,24.47
2022-11-26T17:48:38.823Z,24.53
2022-11-26T17:53:45.965Z,24.55
2022-11-26T17:58:53.149Z,24.55
2022-11-26T18:04:00.435Z,24.58
2022-11-26T18:09:07.601Z,24.56
2022-11-26T18:14:14.842Z,24.57
2022-11-26T18:19:22.183Z,24.58
2022-11-26T18:24:29.628Z,24.63
2022-11-26T18:29:37.337Z,24.64
2022-11-26T18:34:44.251Z,24.70
2022-11-26T18:39:51.757Z,24.73
2022-11-26T18:44:59.126Z,24.79
2022-11-26T18:50:06.392Z,24.79
2022-11-26T18:55:13.885Z,24.86
2022-11-26T19:00:21.503Z,24.87
2022-11-26T19:05:30.591Z,24.85
2022-11-26T19:10:38.159Z,24.72
2022-11-26T19:15:45.553Z,24.69
2022-11-26T19:20:53.126Z,24.69
2022-11-26T19:26:00.798Z,24.58
2022-11-26T19:31:08.448Z,24.56
2022-11-26T19:36:16.983Z,24.62
2022-11-26T19:41:25.989Z,24.71
2022-11-26T19:46:32.249Z,24.79
2022-11-26T19:51:40.376Z,24.95
2022-11-26T19:56:47.714Z,25.00
2022-11-26T20:01:55.433Z,25.01
2022-11-26T20:07:02.968Z,24.99
2022-11-26T20:12:10.559Z,25.04
2022-11-26T20:17:18.325Z,25.12
2022-11-26T20:22:28.117Z,25.19
2022-11-26T20:27:33.504Z,25.30
2022-11-26T20:32:41.227Z,25.33
2022-11-26T20:37:48.869Z,25.34
2022-11-26T20:42:56.345Z,25.35
2022-11-26T20:48:03.959Z,25.34
2022-11-26T20:53:11.607Z,25.28
2022-11-26T20:58:19.195Z,25.21
2022-11-26T21:03:26.562Z,25.21
2022-11-26T21:08:33.766Z,25.17
2022-11-26T21:13:40.902Z,25.16
2022-11-26T21:18:48.049Z,25.20
2022-11-26T21:23:55.547Z,25.18
2022-11-26T21:29:03.030Z,25.16
2022-11-26T21:34:10.364Z,25.15
2022-11-26T21:39:17.586Z,25.12
2022-11-26T21:44:25.492Z,25.16
2022-11-26T21:49:32.576Z,25.13
2022-11-26T21:54:39.792Z,25.23
2022-11-26T21:59:47.174Z,25.21
2022-11-26T22:04:54.441Z,25.25
2022-11-26T22:10:04.630Z,25.28
2022-11-26T22:15:11.767Z,25.19
2022-11-26T22:20:19.017Z,25.19
2022-11-26T22:25:26.278Z,25.28
2022-11-26T22:30:33.488Z,25.28
2022-11-26T22:35:40.690Z,25.29
2022-11-26T22:40:47.962Z,25.32
2022-11-26T22:45:55.257Z,25.24
2022-11-26T22:51:02.430Z,25.14
2022-11-26T22:56:09.641Z,25.09
2022-11-26T23:01:17.543Z,25.13
2022-11-26T23:06:24.734Z,25.17
2022-11-26T23:11:32.106Z,25.14
2022-11-26T23:16:39.364Z,25.07
2022-11-26T23:21:46.452Z,25.14
2022-11-26T23:26:53.623Z,25.12
2022-11-26T23:32:00.901Z,25.10
2022-11-26T23:37:08.072Z,25.16
2022-11-26T23:42:15.315Z,25.06
2022-11-26T23:47:22.505Z,25.02
2022-11-26T23:52:29.703Z,25.05
2022-11-26T23:57:36.915Z,25.08
